Salt Lake City, Utah
Traffic Map
Current Weather Conditions
Salt Lake City, Utah
Few Clouds
Few Clouds
27°
Feels Like: 27°
Wind Chill: 27° Ceiling: Unl
Heat Index: 27° Visibility: 10mi
Dew Point: 10° Wind: 9mph
Humidity: 34% Direction: 340° (NNW)
Pressure: 30.11in Gusts: 0mph
Raw Report DataKSLC 282154Z 34008KT 10SM FEW100 FEW150 FEW220 27/10 A3011 RMK AO2 SLP151 TCU NE-SE T02720100
Traffic Incident Summary
Active as of:
Severity:
Category:
InformationThere was an issue retrieving the traffic information for this location. Please try a different location or try again shortly.
Advertisements
Track Severe Weather on mobile